createdAt,value
2019-05-29T00:02:09.991Z,12.79
2019-05-29T00:04:38.523Z,12.74
2019-05-29T00:07:07.998Z,12.70
2019-05-29T00:09:36.411Z,12.71
2019-05-29T00:12:07.447Z,12.66
2019-05-29T00:14:35.066Z,12.68
2019-05-29T00:17:03.521Z,12.68
2019-05-29T00:19:31.989Z,12.56
2019-05-29T00:22:00.438Z,12.70
2019-05-29T00:24:28.867Z,12.50
2019-05-29T00:26:57.363Z,12.52
2019-05-29T00:29:25.802Z,12.62
2019-05-29T00:31:54.273Z,12.47
2019-05-29T00:34:22.737Z,12.62
2019-05-29T00:36:51.187Z,12.62
2019-05-29T00:39:19.621Z,12.61
2019-05-29T00:41:48.089Z,12.65
2019-05-29T00:44:17.457Z,12.70
2019-05-29T00:46:46.751Z,12.59
2019-05-29T00:49:15.981Z,12.50
2019-05-29T00:51:44.563Z,12.58
2019-05-29T00:54:13.021Z,12.53
2019-05-29T00:56:41.499Z,12.57
2019-05-29T00:59:11.064Z,12.61
2019-05-29T01:01:39.625Z,12.50
2019-05-29T01:04:08.065Z,12.48
2019-05-29T01:06:36.532Z,12.62
2019-05-29T01:09:07.433Z,12.54
2019-05-29T01:11:35.885Z,12.48
2019-05-29T01:14:04.694Z,12.59
2019-05-29T01:16:33.147Z,12.56
2019-05-29T01:19:20.319Z,12.56
2019-05-29T01:21:48.886Z,12.56
2019-05-29T01:24:18.344Z,12.50
2019-05-29T01:26:46.856Z,12.38
2019-05-29T01:29:15.319Z,12.29
2019-05-29T01:31:43.770Z,12.21
2019-05-29T01:34:12.198Z,12.20
2019-05-29T01:36:40.676Z,12.18
2019-05-29T01:39:09.170Z,12.17
2019-05-29T01:41:37.694Z,12.20
2019-05-29T01:44:06.141Z,12.16
2019-05-29T01:46:34.612Z,12.14
2019-05-29T01:49:03.056Z,11.95
2019-05-29T01:51:31.562Z,11.89
2019-05-29T01:54:00.040Z,11.92
2019-05-29T01:56:28.496Z,11.82
2019-05-29T01:58:56.986Z,11.83
2019-05-29T02:01:25.433Z,11.83
2019-05-29T02:03:53.899Z,11.55
2019-05-29T02:06:22.549Z,11.55
2019-05-29T02:08:50.994Z,11.68
2019-05-29T02:11:19.453Z,11.79
2019-05-29T02:13:47.886Z,11.76
2019-05-29T02:16:16.479Z,11.61
2019-05-29T02:18:44.983Z,11.69
2019-05-29T02:21:13.457Z,11.69
2019-05-29T02:23:41.915Z,11.69
2019-05-29T02:26:10.397Z,11.71
2019-05-29T02:28:38.866Z,11.73
2019-05-29T02:31:07.312Z,11.78
2019-05-29T02:33:35.806Z,11.76
2019-05-29T02:36:04.245Z,11.88
2019-05-29T02:38:32.712Z,11.87
2019-05-29T02:41:01.160Z,11.87
2019-05-29T02:43:30.135Z,11.90
2019-05-29T02:45:58.640Z,11.90
2019-05-29T02:48:28.038Z,11.80
2019-05-29T02:50:57.371Z,11.81
2019-05-29T02:53:26.200Z,11.67
2019-05-29T02:55:54.709Z,11.70
2019-05-29T02:58:24.014Z,11.70
2019-05-29T03:00:55.284Z,11.70
2019-05-29T03:03:26.491Z,11.66
2019-05-29T03:05:55.533Z,11.56
2019-05-29T03:08:24.793Z,11.58
2019-05-29T03:10:54.405Z,11.58
2019-05-29T03:13:23.260Z,11.47
2019-05-29T03:16:08.756Z,11.66
2019-05-29T03:18:23.949Z,11.54
2019-05-29T03:20:52.540Z,11.64
2019-05-29T03:23:21.081Z,11.64
2019-05-29T03:25:49.526Z,11.58
2019-05-29T03:28:17.951Z,11.57
2019-05-29T03:30:46.904Z,11.49
2019-05-29T03:33:15.593Z,11.46
2019-05-29T03:35:47.938Z,11.52
2019-05-29T03:38:14.222Z,11.52
2019-05-29T03:40:42.659Z,11.56
2019-05-29T03:43:14.008Z,11.56
2019-05-29T03:45:42.490Z,11.63
2019-05-29T03:48:10.956Z,11.67
2019-05-29T03:50:39.398Z,11.68
2019-05-29T03:53:07.850Z,11.47
2019-05-29T03:55:37.884Z,11.27
2019-05-29T03:58:06.543Z,11.27
2019-05-29T04:00:41.749Z,11.22
2019-05-29T04:03:05.333Z,11.14
2019-05-29T04:05:35.283Z,11.22
2019-05-29T04:08:03.926Z,11.07
2019-05-29T04:10:34.892Z,10.98
2019-05-29T04:13:02.751Z,11.05
2019-05-29T04:15:36.607Z,11.16
2019-05-29T04:18:06.208Z,11.16
2019-05-29T04:20:38.454Z,11.00
2019-05-29T04:23:07.887Z,11.09
2019-05-29T04:25:41.750Z,11.09
2019-05-29T04:28:09.006Z,11.31
2019-05-29T04:30:39.086Z,11.31
2019-05-29T04:33:07.852Z,11.24
2019-05-29T04:35:36.923Z,11.35
2019-05-29T04:38:05.695Z,11.47
2019-05-29T04:40:34.966Z,11.47
2019-05-29T04:43:04.200Z,11.41
2019-05-29T04:45:33.346Z,11.57
2019-05-29T04:48:02.545Z,11.54
2019-05-29T04:50:31.799Z,11.53
2019-05-29T04:53:01.155Z,11.62
2019-05-29T04:55:30.614Z,11.54
2019-05-29T04:57:59.151Z,11.56
2019-05-29T05:00:28.915Z,11.74
2019-05-29T05:02:57.450Z,11.74
2019-05-29T05:05:25.915Z,11.82
2019-05-29T05:07:54.396Z,11.76
2019-05-29T05:10:37.909Z,12.03
2019-05-29T05:13:06.930Z,12.03
2019-05-29T05:15:36.202Z,12.09
2019-05-29T05:18:06.614Z,12.14
2019-05-29T05:20:36.206Z,11.97
2019-05-29T05:23:05.194Z,11.97
2019-05-29T05:25:34.167Z,12.04
2019-05-29T05:28:02.938Z,12.05
2019-05-29T05:30:32.378Z,12.05
2019-05-29T05:33:00.913Z,12.22
2019-05-29T05:35:30.633Z,12.38
2019-05-29T05:37:59.213Z,12.38
2019-05-29T05:40:27.683Z,12.04
2019-05-29T05:42:56.145Z,12.22
2019-05-29T05:45:24.602Z,12.42
2019-05-29T05:47:57.511Z,12.32
2019-05-29T05:50:23.407Z,12.50
2019-05-29T05:52:51.865Z,12.54
2019-05-29T05:55:20.454Z,12.75
2019-05-29T05:57:48.926Z,12.94
2019-05-29T06:00:20.440Z,12.93
2019-05-29T06:02:52.133Z,13.15
2019-05-29T06:05:19.072Z,13.34
2019-05-29T06:07:47.525Z,13.51
2019-05-29T06:10:16.021Z,13.33
2019-05-29T06:12:44.470Z,13.28
2019-05-29T06:15:13.237Z,12.94
2019-05-29T06:17:57.115Z,12.69
2019-05-29T06:20:12.396Z,12.54
2019-05-29T06:22:41.185Z,12.76
2019-05-29T06:25:10.031Z,12.85
2019-05-29T06:27:39.211Z,12.76
2019-05-29T06:30:09.808Z,12.72
2019-05-29T06:32:39.340Z,12.72
2019-05-29T06:35:08.349Z,12.64
2019-05-29T06:37:37.534Z,12.72
2019-05-29T06:40:06.885Z,12.73
2019-05-29T06:42:35.707Z,12.67
2019-05-29T06:45:08.271Z,12.53
2019-05-29T06:47:38.610Z,12.33
2019-05-29T06:50:07.581Z,12.51
2019-05-29T06:52:37.114Z,12.73
2019-05-29T06:55:06.108Z,12.88
2019-05-29T06:57:35.897Z,13.05
2019-05-29T07:00:07.815Z,13.13
2019-05-29T07:02:36.443Z,13.49
2019-05-29T07:05:06.329Z,13.66
2019-05-29T07:07:36.051Z,13.82
2019-05-29T07:10:06.664Z,13.73
2019-05-29T07:12:36.263Z,13.62
2019-05-29T07:15:07.987Z,13.92
2019-05-29T07:17:36.481Z,13.70
2019-05-29T07:20:06.546Z,13.53
2019-05-29T07:22:35.035Z,13.57
2019-05-29T07:25:04.646Z,13.44
2019-05-29T07:27:33.142Z,13.22
2019-05-29T07:30:01.593Z,13.22
2019-05-29T07:32:30.053Z,13.60
2019-05-29T07:35:03.572Z,13.60
2019-05-29T07:37:28.718Z,13.52
2019-05-29T07:39:57.148Z,13.78
2019-05-29T07:42:25.658Z,13.78
2019-05-29T07:44:54.138Z,13.74
2019-05-29T07:47:22.580Z,13.64
2019-05-29T07:49:51.096Z,13.77
2019-05-29T07:52:19.527Z,13.87
2019-05-29T07:54:48.219Z,13.79
2019-05-29T07:57:16.822Z,13.85
2019-05-29T07:59:45.259Z,14.35
2019-05-29T08:02:13.737Z,14.48
2019-05-29T08:04:43.032Z,14.46
2019-05-29T08:07:11.646Z,14.58
2019-05-29T08:09:41.379Z,14.57
2019-05-29T08:12:09.932Z,14.71
2019-05-29T08:14:39.659Z,14.31
2019-05-29T08:17:08.257Z,14.24
2019-05-29T08:19:36.731Z,14.40
2019-05-29T08:22:05.473Z,14.77
2019-05-29T08:24:33.916Z,14.50
2019-05-29T08:27:02.457Z,14.48
2019-05-29T08:29:30.943Z,14.45
2019-05-29T08:31:59.398Z,14.69
2019-05-29T08:34:27.854Z,14.45
2019-05-29T08:37:06.647Z,15.07
2019-05-29T08:39:36.097Z,15.44
2019-05-29T08:42:21.242Z,15.84
2019-05-29T08:44:26.911Z,15.13
2019-05-29T08:47:08.511Z,15.33
2019-05-29T08:49:25.563Z,15.26
2019-05-29T08:52:10.467Z,15.69
2019-05-29T08:54:24.535Z,15.56
2019-05-29T08:56:53.081Z,14.71
2019-05-29T08:59:21.570Z,15.23
2019-05-29T09:01:52.655Z,15.19
2019-05-29T09:04:20.157Z,15.67
2019-05-29T09:06:49.234Z,15.54
2019-05-29T09:09:17.693Z,15.14
2019-05-29T09:11:47.580Z,14.78
2019-05-29T09:14:16.105Z,14.32
2019-05-29T09:16:44.606Z,14.36
2019-05-29T09:19:14.191Z,14.82
2019-05-29T09:21:42.839Z,15.21
2019-05-29T09:24:14.079Z,15.09
2019-05-29T09:26:41.499Z,15.41
2019-05-29T09:29:09.958Z,15.76
2019-05-29T09:31:38.442Z,15.66
2019-05-29T09:34:06.892Z,15.40
2019-05-29T09:36:35.345Z,15.56
2019-05-29T09:39:06.279Z,15.25
2019-05-29T09:41:34.718Z,15.25
2019-05-29T09:44:03.259Z,15.26
2019-05-29T09:46:31.755Z,15.70
2019-05-29T09:49:01.634Z,16.02
2019-05-29T09:51:30.358Z,15.90
2019-05-29T09:54:00.998Z,16.00
2019-05-29T09:56:28.983Z,16.00
2019-05-29T09:58:58.343Z,15.72
2019-05-29T10:01:27.688Z,15.88
2019-05-29T10:03:57.588Z,16.16
2019-05-29T10:06:26.372Z,16.12
2019-05-29T10:08:56.163Z,15.91
2019-05-29T10:11:25.166Z,15.50
2019-05-29T10:13:53.930Z,15.60
2019-05-29T10:16:23.585Z,15.18
2019-05-29T10:18:52.078Z,15.39
2019-05-29T10:21:38.166Z,15.71
2019-05-29T10:23:50.698Z,15.75
2019-05-29T10:26:19.209Z,15.66
2019-05-29T10:29:01.668Z,15.89
2019-05-29T10:31:17.874Z,16.32
2019-05-29T10:33:46.356Z,16.60
2019-05-29T10:36:14.791Z,16.67
2019-05-29T10:38:44.346Z,16.53
2019-05-29T10:41:12.900Z,16.79
2019-05-29T10:43:41.381Z,16.48
2019-05-29T10:46:10.208Z,16.70
2019-05-29T10:48:38.763Z,16.26
2019-05-29T10:51:07.219Z,16.11
2019-05-29T10:53:35.655Z,16.27
2019-05-29T10:56:04.214Z,16.38
2019-05-29T10:58:47.950Z,16.40
2019-05-29T11:01:03.078Z,16.71
2019-05-29T11:03:31.519Z,16.66
2019-05-29T11:05:59.984Z,16.87
2019-05-29T11:08:28.394Z,16.45
2019-05-29T11:10:56.887Z,16.40
2019-05-29T11:13:25.363Z,16.81
2019-05-29T11:15:54.818Z,17.30
2019-05-29T11:18:23.432Z,17.23
2019-05-29T11:20:53.471Z,17.27
2019-05-29T11:23:22.065Z,17.45
2019-05-29T11:25:50.559Z,16.80
2019-05-29T11:28:19.023Z,16.68
2019-05-29T11:30:48.656Z,16.57
2019-05-29T11:33:17.214Z,16.40
2019-05-29T11:35:58.567Z,16.63
2019-05-29T11:38:15.880Z,16.78
2019-05-29T11:40:44.490Z,16.73
2019-05-29T11:43:12.958Z,16.76
2019-05-29T11:45:41.411Z,16.82
2019-05-29T11:48:09.928Z,17.10
2019-05-29T11:50:38.415Z,17.27
2019-05-29T11:53:06.877Z,17.27
2019-05-29T11:55:35.357Z,16.91
2019-05-29T11:58:03.935Z,16.58
2019-05-29T12:00:32.530Z,16.22
2019-05-29T12:03:01.749Z,16.41
2019-05-29T12:05:30.269Z,16.80
2019-05-29T12:07:59.586Z,16.83
2019-05-29T12:10:28.138Z,16.87
2019-05-29T12:12:57.578Z,16.94
2019-05-29T12:15:26.159Z,17.13
2019-05-29T12:18:08.997Z,17.15
2019-05-29T12:20:27.838Z,17.19
2019-05-29T12:23:21.962Z,17.32
2019-05-29T12:25:25.409Z,17.45
2019-05-29T12:27:55.314Z,17.14
2019-05-29T12:30:25.051Z,16.89
2019-05-29T12:32:54.712Z,16.81
2019-05-29T12:35:23.305Z,16.96
2019-05-29T12:37:53.067Z,17.15
2019-05-29T12:40:22.149Z,17.35
2019-05-29T12:42:50.620Z,16.96
2019-05-29T12:45:20.414Z,16.92
2019-05-29T12:47:48.903Z,17.22
2019-05-29T12:50:18.207Z,16.84
2019-05-29T12:52:46.692Z,16.97
2019-05-29T12:55:16.802Z,16.89
2019-05-29T12:57:45.325Z,16.83
2019-05-29T13:00:18.738Z,17.04
2019-05-29T13:02:47.180Z,17.16
2019-05-29T13:05:20.503Z,16.94
2019-05-29T13:07:46.989Z,17.14
2019-05-29T13:10:29.969Z,17.14
2019-05-29T13:12:49.477Z,17.50
2019-05-29T13:15:18.882Z,17.96
2019-05-29T13:17:47.366Z,17.95
2019-05-29T13:20:21.709Z,17.70
2019-05-29T13:22:46.391Z,17.53
2019-05-29T13:25:16.005Z,17.42
2019-05-29T13:27:44.457Z,17.50
2019-05-29T13:30:18.493Z,17.59
2019-05-29T13:32:47.320Z,17.60
2019-05-29T13:35:16.153Z,17.32
2019-05-29T13:37:44.633Z,17.34
2019-05-29T13:40:14.182Z,17.74
2019-05-29T13:42:42.631Z,17.54
2019-05-29T13:45:18.364Z,17.63
2019-05-29T13:47:42.854Z,17.74
2019-05-29T13:50:13.503Z,17.91
2019-05-29T13:52:42.060Z,18.21
2019-05-29T13:55:12.903Z,17.97
2019-05-29T13:57:41.351Z,17.71
2019-05-29T14:00:32.502Z,17.64
2019-05-29T14:02:44.507Z,17.85
2019-05-29T14:05:14.209Z,18.00
2019-05-29T14:07:42.724Z,18.22
2019-05-29T14:10:11.703Z,18.22
2019-05-29T14:12:40.163Z,18.03
2019-05-29T14:15:09.740Z,18.08
2019-05-29T14:17:38.208Z,17.85
2019-05-29T14:20:08.845Z,17.67
2019-05-29T14:22:37.626Z,17.77
2019-05-29T14:25:07.518Z,17.74
2019-05-29T14:27:36.031Z,17.55
2019-05-29T14:30:08.473Z,17.39
2019-05-29T14:32:37.880Z,17.13
2019-05-29T14:35:07.759Z,17.00
2019-05-29T14:37:37.199Z,17.21
2019-05-29T14:40:07.941Z,17.79
2019-05-29T14:42:36.549Z,18.31
2019-05-29T14:45:10.351Z,18.08
2019-05-29T14:47:39.170Z,17.83
2019-05-29T14:50:09.237Z,17.96
2019-05-29T14:52:39.028Z,17.91
2019-05-29T14:55:09.378Z,18.27
2019-05-29T14:57:38.459Z,18.49
2019-05-29T15:00:22.932Z,18.55
2019-05-29T15:02:43.536Z,18.66
2019-05-29T15:05:14.404Z,18.57
2019-05-29T15:07:42.680Z,18.63
2019-05-29T15:10:22.696Z,19.01
2019-05-29T15:12:41.810Z,18.93
2019-05-29T15:15:11.901Z,18.59
2019-05-29T15:17:41.130Z,18.67
2019-05-29T15:20:12.358Z,18.60
2019-05-29T15:22:40.503Z,18.99
2019-05-29T15:25:19.474Z,19.24
2019-05-29T15:27:39.921Z,19.16
2019-05-29T15:30:10.941Z,19.43
2019-05-29T15:32:39.798Z,19.65
2019-05-29T15:35:12.686Z,19.62
2019-05-29T15:37:40.497Z,19.63
2019-05-29T15:40:10.931Z,19.54
2019-05-29T15:42:39.571Z,19.70
2019-05-29T15:45:09.855Z,20.03
2019-05-29T15:47:38.370Z,20.20
2019-05-29T15:50:09.168Z,20.85
2019-05-29T15:52:37.863Z,21.35
2019-05-29T15:55:23.516Z,21.74
2019-05-29T15:57:38.715Z,21.61
2019-05-29T16:00:09.227Z,21.53
2019-05-29T16:02:37.651Z,22.08
2019-05-29T16:05:07.080Z,22.73
2019-05-29T16:07:35.614Z,22.39
2019-05-29T16:10:12.393Z,22.92
2019-05-29T16:12:39.237Z,23.41
2019-05-29T16:15:09.120Z,23.67
2019-05-29T16:17:37.723Z,23.72
2019-05-29T16:20:08.603Z,23.08
2019-05-29T16:22:37.074Z,23.03
2019-05-29T16:25:10.968Z,23.87
2019-05-29T16:27:39.419Z,23.76
2019-05-29T16:30:08.874Z,22.85
2019-05-29T16:32:37.388Z,22.88
2019-05-29T16:35:07.066Z,23.43
2019-05-29T16:37:35.534Z,23.39
2019-05-29T16:40:06.259Z,23.66
2019-05-29T16:42:34.771Z,23.68
2019-05-29T16:45:04.198Z,23.15
2019-05-29T16:47:32.757Z,22.82
2019-05-29T16:50:01.279Z,22.97
2019-05-29T16:52:29.741Z,23.65
2019-05-29T16:54:58.202Z,23.41
2019-05-29T16:57:26.659Z,22.69
2019-05-29T16:59:55.131Z,21.63
2019-05-29T17:02:23.778Z,21.08
2019-05-29T17:04:52.309Z,20.66
2019-05-29T17:07:22.081Z,19.92
2019-05-29T17:09:50.678Z,19.87
2019-05-29T17:12:19.121Z,19.66
2019-05-29T17:14:47.588Z,19.50
2019-05-29T17:17:16.865Z,19.35
2019-05-29T17:19:45.439Z,19.33
2019-05-29T17:22:14.555Z,19.23
2019-05-29T17:24:43.079Z,19.17
2019-05-29T17:27:11.582Z,19.17
2019-05-29T17:29:40.120Z,19.18
2019-05-29T17:32:08.591Z,19.09
2019-05-29T17:34:37.055Z,19.06
2019-05-29T17:37:05.690Z,19.08
2019-05-29T17:39:34.183Z,18.96
2019-05-29T17:42:02.702Z,18.72
2019-05-29T17:44:31.145Z,18.31
2019-05-29T17:46:59.579Z,18.17
2019-05-29T17:49:34.327Z,18.39
2019-05-29T17:51:58.262Z,18.46
2019-05-29T17:54:26.724Z,18.27
2019-05-29T17:56:55.319Z,18.41
2019-05-29T17:59:24.154Z,18.12
2019-05-29T18:01:52.661Z,18.05
2019-05-29T18:04:22.480Z,18.04
2019-05-29T18:06:51.134Z,18.18
2019-05-29T18:09:23.773Z,18.20
2019-05-29T18:11:49.892Z,18.05
2019-05-29T18:14:19.208Z,18.16
2019-05-29T18:16:47.697Z,18.00
2019-05-29T18:19:17.430Z,18.10
2019-05-29T18:21:46.116Z,17.94
2019-05-29T18:24:14.585Z,17.98
2019-05-29T18:26:47.159Z,17.78
2019-05-29T18:29:13.271Z,17.61
2019-05-29T18:31:41.732Z,17.57
2019-05-29T18:34:10.200Z,17.45
2019-05-29T18:36:38.683Z,17.47
2019-05-29T18:39:08.179Z,17.41
2019-05-29T18:41:36.653Z,17.40
2019-05-29T18:44:05.179Z,17.36
2019-05-29T18:46:37.555Z,17.25
2019-05-29T18:49:03.900Z,16.99
2019-05-29T18:51:32.827Z,16.97
2019-05-29T18:54:01.362Z,16.76
2019-05-29T18:56:30.599Z,16.79
2019-05-29T18:58:59.195Z,16.72
2019-05-29T19:01:27.662Z,16.68
2019-05-29T19:03:56.136Z,16.68
2019-05-29T19:06:25.563Z,16.71
2019-05-29T19:08:54.141Z,16.56
2019-05-29T19:11:23.859Z,16.49
2019-05-29T19:13:52.439Z,16.55
2019-05-29T19:16:21.822Z,16.50
2019-05-29T19:18:50.436Z,16.40
2019-05-29T19:21:18.894Z,16.44
2019-05-29T19:23:47.340Z,16.53
2019-05-29T19:26:15.790Z,16.30
2019-05-29T19:28:44.242Z,16.34
2019-05-29T19:31:12.702Z,16.20
2019-05-29T19:33:41.175Z,16.21
2019-05-29T19:36:09.664Z,16.12
2019-05-29T19:38:38.124Z,16.01
2019-05-29T19:41:06.663Z,16.07
2019-05-29T19:43:35.137Z,16.07
2019-05-29T19:46:03.754Z,16.01
2019-05-29T19:48:33.040Z,15.92
2019-05-29T19:51:01.617Z,15.91
2019-05-29T19:53:31.379Z,15.93
2019-05-29T19:55:59.970Z,15.86
2019-05-29T19:58:29.696Z,15.81
2019-05-29T20:00:58.341Z,15.73
2019-05-29T20:03:26.821Z,15.80
2019-05-29T20:05:55.768Z,15.68
2019-05-29T20:08:24.212Z,15.63
2019-05-29T20:10:52.656Z,15.56
2019-05-29T20:13:21.138Z,15.45
2019-05-29T20:15:49.569Z,15.35
2019-05-29T20:18:18.030Z,15.38
2019-05-29T20:20:46.500Z,15.38
2019-05-29T20:23:15.018Z,15.34
2019-05-29T20:25:43.469Z,15.29
2019-05-29T20:28:11.948Z,15.27
2019-05-29T20:30:40.392Z,15.21
2019-05-29T20:33:08.859Z,15.19
2019-05-29T20:35:37.327Z,15.09
2019-05-29T20:38:06.657Z,15.04
2019-05-29T20:40:35.434Z,14.88
2019-05-29T20:43:03.940Z,15.01
2019-05-29T20:45:33.385Z,14.75
2019-05-29T20:48:01.939Z,14.78
2019-05-29T20:50:30.904Z,14.67
2019-05-29T20:52:59.425Z,14.67
2019-05-29T20:55:27.879Z,14.71
2019-05-29T20:57:56.330Z,14.52
2019-05-29T21:00:25.242Z,14.59
2019-05-29T21:02:53.729Z,14.43
2019-05-29T21:05:22.226Z,14.23
2019-05-29T21:07:50.684Z,14.14
2019-05-29T21:10:19.502Z,14.00
2019-05-29T21:12:47.957Z,14.03
2019-05-29T21:15:16.660Z,14.08
2019-05-29T21:17:45.116Z,14.05
2019-05-29T21:20:13.975Z,14.14
2019-05-29T21:22:42.963Z,14.16
2019-05-29T21:25:15.953Z,14.23
2019-05-29T21:27:46.552Z,14.01
2019-05-29T21:30:12.740Z,13.96
2019-05-29T21:32:41.895Z,13.98
2019-05-29T21:35:10.724Z,13.74
2019-05-29T21:37:40.324Z,13.85
2019-05-29T21:40:09.138Z,13.92
2019-05-29T21:42:38.506Z,13.71
2019-05-29T21:45:07.780Z,13.74
2019-05-29T21:47:37.096Z,13.78
2019-05-29T21:50:10.348Z,13.82
2019-05-29T21:52:39.478Z,13.72
2019-05-29T21:55:09.480Z,13.73
2019-05-29T21:57:41.317Z,13.76
2019-05-29T22:00:16.276Z,13.60
2019-05-29T22:02:44.817Z,13.48
2019-05-29T22:05:13.841Z,13.36
2019-05-29T22:07:42.817Z,13.43
2019-05-29T22:10:13.728Z,13.43
2019-05-29T22:12:42.185Z,13.37
2019-05-29T22:15:10.975Z,13.25
2019-05-29T22:17:39.469Z,13.32
2019-05-29T22:20:08.290Z,13.26
2019-05-29T22:22:37.026Z,13.26
2019-05-29T22:25:07.281Z,13.11
2019-05-29T22:27:36.575Z,13.07
2019-05-29T22:30:07.663Z,12.90
2019-05-29T22:32:36.122Z,12.90
2019-05-29T22:35:06.239Z,12.78
2019-05-29T22:37:34.750Z,12.75
2019-05-29T22:40:04.935Z,12.69
2019-05-29T22:42:33.380Z,12.76
2019-05-29T22:45:02.318Z,12.58
2019-05-29T22:47:30.847Z,12.61
2019-05-29T22:49:59.884Z,12.61
2019-05-29T22:52:29.239Z,12.39
2019-05-29T22:54:58.059Z,12.62
2019-05-29T22:57:26.537Z,12.29
2019-05-29T22:59:55.936Z,12.47
2019-05-29T23:02:24.438Z,12.63
2019-05-29T23:04:54.182Z,12.51
2019-05-29T23:07:22.761Z,12.67
2019-05-29T23:09:52.145Z,12.67
2019-05-29T23:12:20.621Z,12.66
2019-05-29T23:14:49.088Z,12.37
2019-05-29T23:17:17.525Z,12.37
2019-05-29T23:19:46.031Z,12.48
2019-05-29T23:22:14.484Z,12.37
2019-05-29T23:24:42.952Z,12.25
2019-05-29T23:27:11.407Z,12.14
2019-05-29T23:29:48.947Z,12.29
2019-05-29T23:32:10.100Z,12.30
2019-05-29T23:34:38.551Z,12.29
2019-05-29T23:37:07.004Z,12.37
2019-05-29T23:39:35.452Z,12.25
2019-05-29T23:42:03.889Z,12.03
2019-05-29T23:44:32.350Z,11.80
2019-05-29T23:47:01.801Z,11.53
2019-05-29T23:49:30.392Z,11.32
2019-05-29T23:51:59.713Z,11.27
2019-05-29T23:54:28.261Z,11.29
2019-05-29T23:56:57.833Z,11.29
2019-05-29T23:59:26.456Z,11.03
